createdAt,value
2018-12-26T00:02:18.312Z,24.67
2018-12-26T00:04:45.758Z,25.13
2018-12-26T00:07:13.172Z,24.23
2018-12-26T00:09:40.613Z,24.27
2018-12-26T00:12:08.022Z,25.40
2018-12-26T00:14:35.460Z,23.60
2018-12-26T00:17:02.881Z,25.70
2018-12-26T00:19:30.341Z,24.37
2018-12-26T00:21:57.769Z,22.53
2018-12-26T00:24:25.166Z,23.63
2018-12-26T00:26:52.596Z,23.80
2018-12-26T00:29:20.033Z,23.20
2018-12-26T00:31:47.490Z,24.27
2018-12-26T00:34:14.892Z,21.53
2018-12-26T00:36:42.294Z,22.57
2018-12-26T00:39:09.726Z,24.37
2018-12-26T00:41:37.161Z,24.67
2018-12-26T00:44:04.568Z,28.33
2018-12-26T00:46:32.011Z,26.97
2018-12-26T00:48:59.419Z,27.70
2018-12-26T00:51:26.849Z,25.17
2018-12-26T00:53:54.297Z,24.47
2018-12-26T00:56:21.701Z,27.53
2018-12-26T00:58:49.133Z,27.77
2018-12-26T01:01:16.551Z,27.37
2018-12-26T01:03:43.975Z,24.37
2018-12-26T01:06:11.408Z,24.77
2018-12-26T01:08:38.847Z,21.30
2018-12-26T01:11:06.264Z,22.63
2018-12-26T01:13:33.730Z,21.07
2018-12-26T01:16:01.200Z,22.47
2018-12-26T01:18:28.613Z,21.17
2018-12-26T01:20:56.055Z,22.23
2018-12-26T01:23:23.475Z,22.50
2018-12-26T01:25:50.930Z,24.87
2018-12-26T01:28:18.363Z,25.47
2018-12-26T01:30:45.786Z,24.63
2018-12-26T01:33:13.221Z,22.83
2018-12-26T01:35:40.655Z,21.97
2018-12-26T01:38:08.087Z,20.63
2018-12-26T01:40:35.496Z,22.27
2018-12-26T01:43:02.946Z,21.07
2018-12-26T01:45:30.372Z,21.37
2018-12-26T01:47:57.790Z,21.40
2018-12-26T01:50:25.238Z,21.63
2018-12-26T01:52:52.676Z,22.87
2018-12-26T01:55:20.099Z,22.50
2018-12-26T01:57:47.543Z,21.97
2018-12-26T02:00:14.977Z,21.03
2018-12-26T02:02:42.419Z,21.30
2018-12-26T02:05:09.828Z,22.87
2018-12-26T02:07:37.431Z,22.27
2018-12-26T02:10:04.840Z,23.93
2018-12-26T02:12:32.265Z,22.63
2018-12-26T02:14:59.708Z,23.97
2018-12-26T02:17:27.156Z,34.00
2018-12-26T02:19:54.570Z,25.77
2018-12-26T02:22:22.002Z,25.97
2018-12-26T02:24:49.420Z,20.93
2018-12-26T02:27:16.858Z,19.97
2018-12-26T02:29:44.304Z,20.03
2018-12-26T02:32:11.725Z,20.23
2018-12-26T02:34:39.200Z,21.33
2018-12-26T02:37:06.630Z,22.67
2018-12-26T02:39:34.085Z,23.87
2018-12-26T02:42:01.547Z,22.40
2018-12-26T02:44:28.993Z,22.53
2018-12-26T02:46:56.406Z,25.53
2018-12-26T02:49:23.896Z,24.63
2018-12-26T02:51:51.268Z,25.20
2018-12-26T02:54:18.715Z,24.40
2018-12-26T02:56:48.929Z,25.80
2018-12-26T02:59:13.555Z,25.53
2018-12-26T03:01:40.999Z,25.33
2018-12-26T03:04:08.404Z,21.97
2018-12-26T03:06:35.855Z,22.73
2018-12-26T03:09:03.263Z,20.97
2018-12-26T03:11:30.691Z,20.93
2018-12-26T03:13:58.137Z,20.33
2018-12-26T03:16:25.567Z,23.53
2018-12-26T03:18:53.004Z,22.57
2018-12-26T03:21:20.423Z,23.30
2018-12-26T03:23:47.879Z,23.57
2018-12-26T03:26:15.285Z,23.13
2018-12-26T03:28:42.722Z,23.80
2018-12-26T03:31:10.165Z,22.20
2018-12-26T03:33:37.581Z,22.83
2018-12-26T03:36:05.014Z,21.37
2018-12-26T03:38:32.450Z,26.20
2018-12-26T03:40:59.875Z,26.97
2018-12-26T03:43:27.293Z,24.70
2018-12-26T03:45:54.717Z,26.93
2018-12-26T03:48:22.184Z,24.23
2018-12-26T03:50:49.600Z,25.40
2018-12-26T03:53:17.057Z,22.13
2018-12-26T03:55:44.462Z,25.37
2018-12-26T03:58:11.908Z,25.50
2018-12-26T04:00:39.352Z,25.52
2018-12-26T04:03:06.789Z,22.73
2018-12-26T04:05:34.191Z,23.40
2018-12-26T04:08:01.644Z,23.80
2018-12-26T04:10:29.067Z,24.13
2018-12-26T04:12:56.486Z,24.70
2018-12-26T04:15:23.908Z,23.67
2018-12-26T04:17:51.383Z,26.00
2018-12-26T04:20:18.820Z,24.27
2018-12-26T04:22:46.236Z,24.10
2018-12-26T04:25:13.660Z,27.17
2018-12-26T04:27:41.085Z,26.27
2018-12-26T04:30:08.527Z,26.73
2018-12-26T04:32:35.943Z,26.87
2018-12-26T04:35:03.370Z,28.47
2018-12-26T04:37:30.792Z,27.60
2018-12-26T04:39:58.232Z,27.13
2018-12-26T04:42:25.654Z,32.60
2018-12-26T04:44:53.091Z,25.53
2018-12-26T04:47:20.525Z,28.03
2018-12-26T04:49:47.960Z,26.87
2018-12-26T04:52:15.382Z,26.77
2018-12-26T04:54:42.805Z,25.13
2018-12-26T04:57:10.219Z,23.83
2018-12-26T04:59:37.648Z,29.00
2018-12-26T05:02:05.067Z,25.53
2018-12-26T05:04:32.499Z,25.20
2018-12-26T05:06:59.907Z,24.80
2018-12-26T05:09:27.362Z,23.97
2018-12-26T05:11:54.771Z,27.43
2018-12-26T05:14:22.316Z,26.67
2018-12-26T05:16:49.607Z,27.27
2018-12-26T05:19:17.009Z,26.20
2018-12-26T05:21:44.449Z,28.00
2018-12-26T05:24:11.876Z,26.93
2018-12-26T05:26:39.286Z,27.43
2018-12-26T05:29:06.735Z,28.27
2018-12-26T05:31:34.152Z,30.50
2018-12-26T05:34:01.554Z,26.53
2018-12-26T05:36:28.992Z,26.93
2018-12-26T05:38:56.392Z,24.87
2018-12-26T05:41:23.844Z,24.50
2018-12-26T05:43:51.256Z,23.60
2018-12-26T05:46:18.712Z,22.47
2018-12-26T05:48:46.150Z,21.23
2018-12-26T05:51:13.576Z,21.70
2018-12-26T05:53:41.012Z,22.03
2018-12-26T05:56:08.425Z,21.57
2018-12-26T05:58:35.872Z,22.07
2018-12-26T06:01:03.291Z,22.90
2018-12-26T06:03:30.720Z,21.50
2018-12-26T06:05:58.137Z,21.93
2018-12-26T06:08:25.569Z,21.40
2018-12-26T06:10:53.003Z,20.63
2018-12-26T06:13:20.439Z,20.33
2018-12-26T06:15:47.845Z,19.10
2018-12-26T06:18:15.276Z,20.57
2018-12-26T06:20:42.769Z,20.20
2018-12-26T06:23:10.108Z,21.07
2018-12-26T06:25:37.541Z,21.60
2018-12-26T06:28:04.957Z,25.97
2018-12-26T06:30:32.374Z,26.70
2018-12-26T06:32:59.794Z,25.63
2018-12-26T06:35:27.218Z,27.53
2018-12-26T06:37:54.630Z,25.73
2018-12-26T06:40:22.048Z,25.50
2018-12-26T06:42:49.472Z,25.43
2018-12-26T06:45:16.886Z,24.40
2018-12-26T06:47:44.354Z,25.37
2018-12-26T06:50:11.782Z,25.57
2018-12-26T06:52:39.237Z,27.33
2018-12-26T06:55:06.661Z,26.60
2018-12-26T06:57:34.125Z,25.97
2018-12-26T07:00:01.542Z,25.97
2018-12-26T07:02:28.973Z,24.87
2018-12-26T07:04:56.373Z,26.73
2018-12-26T07:07:23.793Z,28.13
2018-12-26T07:09:51.238Z,24.33
2018-12-26T07:12:18.647Z,25.13
2018-12-26T07:14:46.082Z,25.23
2018-12-26T07:17:13.520Z,25.43
2018-12-26T07:19:40.993Z,25.57
2018-12-26T07:22:08.401Z,24.93
2018-12-26T07:24:35.825Z,27.00
2018-12-26T07:27:03.237Z,26.60
2018-12-26T07:29:30.684Z,27.67
2018-12-26T07:31:58.117Z,27.00
2018-12-26T07:34:25.572Z,27.43
2018-12-26T07:36:52.982Z,28.00
2018-12-26T07:39:20.409Z,26.20
2018-12-26T07:41:47.858Z,25.83
2018-12-26T07:44:15.271Z,26.07
2018-12-26T07:46:42.677Z,27.37
2018-12-26T07:49:10.129Z,26.47
2018-12-26T07:51:37.536Z,25.17
2018-12-26T07:54:04.973Z,26.83
2018-12-26T07:56:32.407Z,24.23
2018-12-26T07:58:59.826Z,24.67
2018-12-26T08:01:27.250Z,24.87
2018-12-26T08:03:54.691Z,24.37
2018-12-26T08:06:22.152Z,24.43
2018-12-26T08:08:49.576Z,25.27
2018-12-26T08:11:16.986Z,22.80
2018-12-26T08:13:44.416Z,23.40
2018-12-26T08:16:11.857Z,24.57
2018-12-26T08:18:39.281Z,25.70
2018-12-26T08:21:06.715Z,25.87
2018-12-26T08:23:34.115Z,26.17
2018-12-26T08:26:01.544Z,25.83
2018-12-26T08:28:28.976Z,25.93
2018-12-26T08:30:56.417Z,25.97
2018-12-26T08:33:23.824Z,25.70
2018-12-26T08:35:51.274Z,24.77
2018-12-26T08:38:18.749Z,23.40
2018-12-26T08:40:46.202Z,26.97
2018-12-26T08:43:13.618Z,24.40
2018-12-26T08:45:41.097Z,23.90
2018-12-26T08:48:08.502Z,24.23
2018-12-26T08:50:35.927Z,27.93
2018-12-26T08:53:03.358Z,26.63
2018-12-26T08:55:30.802Z,28.27
2018-12-26T08:57:58.230Z,29.20
2018-12-26T09:00:25.656Z,32.40
2018-12-26T09:02:53.088Z,27.10
2018-12-26T09:05:20.497Z,27.23
2018-12-26T09:07:47.953Z,27.83
2018-12-26T09:10:15.353Z,25.03
2018-12-26T09:12:42.779Z,23.33
2018-12-26T09:15:10.210Z,23.53
2018-12-26T09:17:37.647Z,23.90
2018-12-26T09:20:05.072Z,23.43
2018-12-26T09:22:32.488Z,25.30
2018-12-26T09:24:59.925Z,24.57
2018-12-26T09:27:27.346Z,21.73
2018-12-26T09:29:54.775Z,22.13
2018-12-26T09:32:22.182Z,20.93
2018-12-26T09:34:51.148Z,23.17
2018-12-26T09:37:18.559Z,19.97
2018-12-26T09:39:45.985Z,21.57
2018-12-26T09:42:13.397Z,21.60
2018-12-26T09:44:40.812Z,21.80
2018-12-26T09:47:08.249Z,21.57
2018-12-26T09:49:35.719Z,20.77
2018-12-26T09:52:03.119Z,22.63
2018-12-26T09:54:30.561Z,21.93
2018-12-26T09:56:57.986Z,19.27
2018-12-26T09:59:25.457Z,20.97
2018-12-26T10:01:54.377Z,22.50
2018-12-26T10:04:20.295Z,21.93
2018-12-26T10:06:47.732Z,21.90
2018-12-26T10:09:15.144Z,20.53
2018-12-26T10:11:42.570Z,20.17
2018-12-26T10:14:10.008Z,19.80
2018-12-26T10:16:37.438Z,23.17
2018-12-26T10:19:04.876Z,21.37
2018-12-26T10:21:32.323Z,18.60
2018-12-26T10:23:59.733Z,19.10
2018-12-26T10:26:27.152Z,18.90
2018-12-26T10:29:00.960Z,19.13
2018-12-26T10:31:21.969Z,20.07
2018-12-26T10:33:49.428Z,20.57
2018-12-26T10:36:16.862Z,21.27
2018-12-26T10:38:44.280Z,20.63
2018-12-26T10:41:11.720Z,18.87
2018-12-26T10:43:39.166Z,20.13
2018-12-26T10:46:06.585Z,19.17
2018-12-26T10:48:33.996Z,19.57
2018-12-26T10:51:01.424Z,20.23
2018-12-26T10:53:28.845Z,19.97
2018-12-26T10:55:56.258Z,19.83
2018-12-26T10:58:23.698Z,19.47
2018-12-26T11:00:51.115Z,20.13
2018-12-26T11:03:18.547Z,20.37
2018-12-26T11:05:45.954Z,19.10
2018-12-26T11:08:13.385Z,20.07
2018-12-26T11:10:40.804Z,18.57
2018-12-26T11:13:08.247Z,20.47
2018-12-26T11:15:35.663Z,21.47
2018-12-26T11:18:03.107Z,20.20
2018-12-26T11:20:30.537Z,18.97
2018-12-26T11:22:57.942Z,21.07
2018-12-26T11:25:25.360Z,20.67
2018-12-26T11:27:52.979Z,19.70
2018-12-26T11:30:20.206Z,20.40
2018-12-26T11:32:47.620Z,21.70
2018-12-26T11:35:15.041Z,19.57
2018-12-26T11:37:42.470Z,18.77
2018-12-26T11:40:09.886Z,20.07
2018-12-26T11:42:37.290Z,18.03
2018-12-26T11:45:04.751Z,19.10
2018-12-26T11:47:32.177Z,17.73
2018-12-26T11:49:59.590Z,18.60
2018-12-26T11:52:27.193Z,18.93
2018-12-26T11:54:54.611Z,19.47
2018-12-26T11:57:22.025Z,19.00
2018-12-26T11:59:49.459Z,19.30
2018-12-26T12:02:20.753Z,18.27
2018-12-26T12:04:44.288Z,17.97
2018-12-26T12:07:11.719Z,19.77
2018-12-26T12:09:39.132Z,18.03
2018-12-26T12:12:06.559Z,17.83
2018-12-26T12:14:33.987Z,17.07
2018-12-26T12:17:01.519Z,17.93
2018-12-26T12:19:28.874Z,17.10
2018-12-26T12:21:56.285Z,16.10
2018-12-26T12:24:23.740Z,15.60
2018-12-26T12:26:51.167Z,15.27
2018-12-26T12:29:18.573Z,15.90
2018-12-26T12:31:46.071Z,15.60
2018-12-26T12:34:13.462Z,15.23
2018-12-26T12:36:40.856Z,15.80
2018-12-26T12:39:08.293Z,15.60
2018-12-26T12:41:35.726Z,16.60
2018-12-26T12:44:03.159Z,16.03
2018-12-26T12:46:30.568Z,16.30
2018-12-26T12:48:57.987Z,16.27
2018-12-26T12:51:25.395Z,15.33
2018-12-26T12:53:52.810Z,15.73
2018-12-26T12:56:20.240Z,15.60
2018-12-26T12:58:47.673Z,16.03
2018-12-26T13:01:15.128Z,15.77
2018-12-26T13:03:46.450Z,15.33
2018-12-26T13:06:09.996Z,16.53
2018-12-26T13:08:37.350Z,15.73
2018-12-26T13:11:04.766Z,15.93
2018-12-26T13:13:32.171Z,15.47
2018-12-26T13:15:59.595Z,15.93
2018-12-26T13:18:26.999Z,15.83
2018-12-26T13:20:54.437Z,16.67
2018-12-26T13:23:21.859Z,17.07
2018-12-26T13:25:49.275Z,16.87
2018-12-26T13:28:16.710Z,16.73
2018-12-26T13:30:44.118Z,17.07
2018-12-26T13:33:11.533Z,15.40
2018-12-26T13:35:38.952Z,15.07
2018-12-26T13:38:06.386Z,15.53
2018-12-26T13:40:33.956Z,15.80
2018-12-26T13:43:01.358Z,15.07
2018-12-26T13:45:28.844Z,15.63
2018-12-26T13:47:56.292Z,16.07
2018-12-26T13:50:23.696Z,16.73
2018-12-26T13:52:51.093Z,17.10
2018-12-26T13:55:18.520Z,16.33
2018-12-26T13:57:45.923Z,17.07
2018-12-26T14:00:13.388Z,16.93
2018-12-26T14:02:40.825Z,15.97
2018-12-26T14:05:08.249Z,17.57
2018-12-26T14:07:35.675Z,17.47
2018-12-26T14:10:03.099Z,18.60
2018-12-26T14:12:30.522Z,15.97
2018-12-26T14:15:00.619Z,15.27
2018-12-26T14:17:28.029Z,15.63
2018-12-26T14:19:55.454Z,15.07
2018-12-26T14:22:22.864Z,15.40
2018-12-26T14:24:50.268Z,16.23
2018-12-26T14:27:17.697Z,15.87
2018-12-26T14:29:45.477Z,17.67
2018-12-26T14:32:12.907Z,16.87
2018-12-26T14:34:40.306Z,17.10
2018-12-26T14:37:07.733Z,17.30
2018-12-26T14:39:35.141Z,16.97
2018-12-26T14:42:02.630Z,16.63
2018-12-26T14:44:30.062Z,16.77
2018-12-26T14:46:57.483Z,17.30
2018-12-26T14:49:24.887Z,16.97
2018-12-26T14:51:52.530Z,17.03
2018-12-26T14:54:19.934Z,16.07
2018-12-26T14:56:47.370Z,16.10
2018-12-26T14:59:14.923Z,17.03
2018-12-26T15:01:42.329Z,16.30
2018-12-26T15:04:09.762Z,17.03
2018-12-26T15:06:37.210Z,16.03
2018-12-26T15:09:04.637Z,16.70
2018-12-26T15:11:32.043Z,14.63
2018-12-26T15:13:59.469Z,15.50
2018-12-26T15:16:26.921Z,14.60
2018-12-26T15:18:54.352Z,14.27
2018-12-26T15:21:21.755Z,14.77
2018-12-26T15:23:49.202Z,14.13
2018-12-26T15:26:16.599Z,15.13
2018-12-26T15:28:44.057Z,13.87
2018-12-26T15:31:11.595Z,14.43
2018-12-26T15:33:39.002Z,14.50
2018-12-26T15:36:06.431Z,14.53
2018-12-26T15:38:33.876Z,14.27
2018-12-26T15:41:01.310Z,13.60
2018-12-26T15:43:28.722Z,14.50
2018-12-26T15:45:56.153Z,14.47
2018-12-26T15:48:23.571Z,14.50
2018-12-26T15:50:50.989Z,14.23
2018-12-26T15:53:18.435Z,16.20
2018-12-26T15:55:45.838Z,17.30
2018-12-26T15:58:13.272Z,15.50
2018-12-26T16:00:40.702Z,16.17
2018-12-26T16:03:08.164Z,15.40
2018-12-26T16:05:35.596Z,15.80
2018-12-26T16:08:03.012Z,15.90
2018-12-26T16:10:30.432Z,15.87
2018-12-26T16:12:57.867Z,14.43
2018-12-26T16:15:25.324Z,15.07
2018-12-26T16:17:52.691Z,15.53
2018-12-26T16:20:20.121Z,14.03
2018-12-26T16:22:47.535Z,14.67
2018-12-26T16:25:14.991Z,18.60
2018-12-26T16:27:42.410Z,15.50
2018-12-26T16:30:09.854Z,15.53
2018-12-26T16:32:37.270Z,15.67
2018-12-26T16:35:04.753Z,19.00
2018-12-26T16:37:32.114Z,17.40
2018-12-26T16:39:59.597Z,15.57
2018-12-26T16:42:27.065Z,16.87
2018-12-26T16:44:54.446Z,19.10
2018-12-26T16:47:21.881Z,24.13
2018-12-26T16:49:49.291Z,26.40
2018-12-26T16:52:16.720Z,22.33
2018-12-26T16:54:44.150Z,26.87
2018-12-26T16:57:11.567Z,25.67
2018-12-26T16:59:38.981Z,22.93
2018-12-26T17:02:06.415Z,22.63
2018-12-26T17:04:33.820Z,21.77
2018-12-26T17:07:01.275Z,24.33
2018-12-26T17:09:28.675Z,27.03
2018-12-26T17:11:56.090Z,25.53
2018-12-26T17:14:23.520Z,20.50
2018-12-26T17:16:51.120Z,19.70
2018-12-26T17:19:18.559Z,17.93
2018-12-26T17:21:45.984Z,18.90
2018-12-26T17:24:16.737Z,17.37
2018-12-26T17:26:40.836Z,16.73
2018-12-26T17:29:08.616Z,16.97
2018-12-26T17:31:36.045Z,17.83
2018-12-26T17:34:03.512Z,17.40
2018-12-26T17:36:30.949Z,17.00
2018-12-26T17:38:58.387Z,17.47
2018-12-26T17:41:25.832Z,16.97
2018-12-26T17:43:54.742Z,15.93
2018-12-26T17:46:22.187Z,17.00
2018-12-26T17:48:49.604Z,16.77
2018-12-26T17:51:17.042Z,21.17
2018-12-26T17:53:50.361Z,19.37
2018-12-26T17:56:17.814Z,21.97
2018-12-26T17:59:06.037Z,23.20
2018-12-26T18:01:51.881Z,20.17
2018-12-26T18:04:19.313Z,21.23
2018-12-26T18:06:46.755Z,21.07
2018-12-26T18:09:14.161Z,19.67
2018-12-26T18:11:41.578Z,19.80
2018-12-26T18:14:09.034Z,20.30
2018-12-26T18:16:36.488Z,20.03
2018-12-26T18:19:03.934Z,18.97
2018-12-26T18:21:31.337Z,20.20
2018-12-26T18:23:58.774Z,21.77
2018-12-26T18:26:26.195Z,21.77
2018-12-26T18:28:53.628Z,21.20
2018-12-26T18:31:22.205Z,20.30
2018-12-26T18:33:48.490Z,22.87
2018-12-26T18:36:15.906Z,24.20
2018-12-26T18:38:43.526Z,26.97
2018-12-26T18:41:10.933Z,28.27
2018-12-26T18:43:38.338Z,28.03
2018-12-26T18:46:05.827Z,28.40
2018-12-26T18:48:33.279Z,29.27
2018-12-26T18:51:00.713Z,26.23
2018-12-26T18:53:28.164Z,28.07
2018-12-26T18:55:55.606Z,26.50
2018-12-26T18:58:23.004Z,25.03
2018-12-26T19:00:50.427Z,25.30
2018-12-26T19:03:17.838Z,24.20
2018-12-26T19:05:45.314Z,23.73
2018-12-26T19:08:12.706Z,24.70
2018-12-26T19:10:40.187Z,25.07
2018-12-26T19:13:07.638Z,28.80
2018-12-26T19:15:35.059Z,32.20
2018-12-26T19:18:02.507Z,29.53
2018-12-26T19:20:29.923Z,30.13
2018-12-26T19:22:57.426Z,31.97
2018-12-26T19:25:24.814Z,35.60
2018-12-26T19:27:52.280Z,34.57
2018-12-26T19:30:19.718Z,30.67
2018-12-26T19:32:47.173Z,29.70
2018-12-26T19:35:14.602Z,29.67
2018-12-26T19:37:42.054Z,31.43
2018-12-26T19:40:09.458Z,32.63
2018-12-26T19:42:37.474Z,33.03
2018-12-26T19:45:04.357Z,34.27
2018-12-26T19:47:31.784Z,35.53
2018-12-26T19:50:04.873Z,33.87
2018-12-26T19:52:26.643Z,31.73
2018-12-26T19:54:54.093Z,29.47
2018-12-26T19:57:21.542Z,30.10
2018-12-26T19:59:49.002Z,31.33
2018-12-26T20:02:16.590Z,29.43
2018-12-26T20:04:44.022Z,26.97
2018-12-26T20:07:11.482Z,28.00
2018-12-26T20:09:38.948Z,27.20
2018-12-26T20:12:06.388Z,26.70
2018-12-26T20:14:33.843Z,26.83
2018-12-26T20:17:01.264Z,25.30
2018-12-26T20:19:28.676Z,28.47
2018-12-26T20:21:56.147Z,27.60
2018-12-26T20:24:23.589Z,26.70
2018-12-26T20:26:51.043Z,28.90
2018-12-26T20:29:18.485Z,29.03
2018-12-26T20:31:45.906Z,30.20
2018-12-26T20:34:13.326Z,30.77
2018-12-26T20:36:40.768Z,29.83
2018-12-26T20:39:08.230Z,30.07
2018-12-26T20:41:35.648Z,29.50
2018-12-26T20:44:03.128Z,27.73
2018-12-26T20:46:30.546Z,28.20
2018-12-26T20:48:57.991Z,28.63
2018-12-26T20:51:25.396Z,27.23
2018-12-26T20:53:52.851Z,28.33
2018-12-26T20:56:20.282Z,26.30
2018-12-26T20:58:47.721Z,27.60
2018-12-26T21:01:15.267Z,30.70
2018-12-26T21:03:42.686Z,29.13
2018-12-26T21:06:10.112Z,27.83
2018-12-26T21:08:37.520Z,31.73
2018-12-26T21:11:04.987Z,33.13
2018-12-26T21:13:32.401Z,29.10
2018-12-26T21:15:59.851Z,30.23
2018-12-26T21:18:27.273Z,31.50
2018-12-26T21:20:54.706Z,31.00
2018-12-26T21:23:22.130Z,31.07
2018-12-26T21:25:49.556Z,33.13
2018-12-26T21:28:16.979Z,30.73
2018-12-26T21:30:44.376Z,30.33
2018-12-26T21:33:11.801Z,31.77
2018-12-26T21:35:39.201Z,27.33
2018-12-26T21:38:06.658Z,29.27
2018-12-26T21:40:34.181Z,31.80
2018-12-26T21:43:01.620Z,32.50
2018-12-26T21:45:29.094Z,31.70
2018-12-26T21:47:56.516Z,29.73
2018-12-26T21:50:23.984Z,32.20
2018-12-26T21:52:51.498Z,28.23
2018-12-26T21:55:18.901Z,28.57
2018-12-26T21:57:46.503Z,27.50
2018-12-26T22:00:13.925Z,30.60
2018-12-26T22:02:41.398Z,26.87
2018-12-26T22:05:08.806Z,28.00
2018-12-26T22:07:36.248Z,31.13
2018-12-26T22:10:03.684Z,31.40
2018-12-26T22:12:31.109Z,28.03
2018-12-26T22:14:58.522Z,29.53
2018-12-26T22:17:25.959Z,31.03
2018-12-26T22:19:53.377Z,32.53
2018-12-26T22:22:20.806Z,36.60
2018-12-26T22:24:48.215Z,38.00
2018-12-26T22:27:15.666Z,33.07
2018-12-26T22:29:43.086Z,34.03
2018-12-26T22:32:10.578Z,34.13
2018-12-26T22:34:38.014Z,31.93
2018-12-26T22:37:05.443Z,33.47
2018-12-26T22:39:32.917Z,29.43
2018-12-26T22:42:00.336Z,28.80
2018-12-26T22:44:28.081Z,29.57
2018-12-26T22:46:55.206Z,29.03
2018-12-26T22:49:22.651Z,29.83
2018-12-26T22:51:50.048Z,29.87
2018-12-26T22:54:17.477Z,29.33
2018-12-26T22:56:44.887Z,31.40
2018-12-26T22:59:12.328Z,26.90
2018-12-26T23:01:39.793Z,27.47
2018-12-26T23:04:07.231Z,27.20
2018-12-26T23:06:34.638Z,28.00
2018-12-26T23:09:02.107Z,28.33
2018-12-26T23:11:29.518Z,26.67
2018-12-26T23:13:56.980Z,26.37
2018-12-26T23:16:24.411Z,26.30
2018-12-26T23:18:51.835Z,25.67
2018-12-26T23:21:19.254Z,28.77
2018-12-26T23:23:46.684Z,30.20
2018-12-26T23:26:14.107Z,27.37
2018-12-26T23:28:41.521Z,29.07
2018-12-26T23:31:08.970Z,29.93
2018-12-26T23:33:36.395Z,27.57
2018-12-26T23:36:03.827Z,29.20
2018-12-26T23:38:31.262Z,25.10
2018-12-26T23:40:58.681Z,23.87
2018-12-26T23:43:26.138Z,25.60
2018-12-26T23:45:53.536Z,26.73
2018-12-26T23:48:20.961Z,30.77
2018-12-26T23:50:48.370Z,32.07
2018-12-26T23:53:15.808Z,32.87
2018-12-26T23:55:43.211Z,30.83
2018-12-26T23:58:10.674Z,31.93
